Terminal Aerodrome Forecast
Issued by NWS Memphis, TN

Home | Current Version | Previous Version | Text Only | Print | Product List | Glossary On
Versions: 1 2 3 4 5 6 7 8 9 10 11 12 13
920
FTUS44 KMEG 191120
TAFJBR
TAF
KJBR 191120Z 1912/2012 32008KT P6SM SKC
     FM191400 36012G18KT P6SM SCT040 SCT250
     FM192100 02009KT P6SM FEW040 FEW250
     FM200100 03004KT P6SM FEW250=

USA.gov is the U.S. government's official web portal to all federal, state and local government web resources and services.